Time;durP1;ratioP1;P1;durP2;ratioP2;P2;SDS_P1;SDS_P2;PMS_P1;PMS_P2;Temp;Humidity;BMP_temperature;BMP_pressure;BME280_temperature;BME280_humidity;BME280_pressure;Samples;Min_cycle;Max_cycle;Signal;HPM_P1;HPM_P2
2022/10/19 00:00:54;;;;;;;;;;;;;;;;;;7368686;19;843;-57
2022/10/19 00:03:22;;;;;;;;;;;;;;;;;;7370424;19;2074;-55
2022/10/19 00:05:50;;;;;;;;;;;;;;;;;;7369573;19;1811;-55
2022/10/19 00:08:18;;;;;;;;;;;;;;;;;;7367852;19;732;-51
2022/10/19 00:10:46;;;;;;;;;;;;;;;;;;7368255;19;756;-53
2022/10/19 00:13:15;;;;;;;;;;;;;;;;;;7367513;19;1845;-54
2022/10/19 00:15:44;;;;;;;;;;;;;;;;;;7367270;19;1387;-51
2022/10/19 00:18:12;;;;;;;;;;;;;;;;;;7367623;19;1843;-53
2022/10/19 00:20:40;;;;;;;;;;;;;;;;;;7369028;19;1778;-54
2022/10/19 00:23:08;;;;;;;;;;;;;;;;;;7367872;19;930;-55
2022/10/19 00:25:37;;;;;;;;;;;;;;;;;;7366565;19;1848;-55
2022/10/19 00:28:05;;;;;;;;;;;;;;;;;;7370411;19;1416;-49
2022/10/19 00:30:33;;;;;;;;;;;;;;;;;;7367936;19;803;-52
2022/10/19 00:33:03;;;;;;;;;;;;;;;;;;7367461;19;1848;-54
2022/10/19 00:35:31;;;;;;;;;;;;;;;;;;7366212;19;1239;-55
2022/10/19 00:37:59;;;;;;;;;;;;;;;;;;7367405;19;803;-55
2022/10/19 00:40:27;;;;;;;;;;;;;;;;;;7370240;19;1850;-54
2022/10/19 00:42:56;;;;;;;;;;;;;;;;;;7367757;19;807;-55
2022/10/19 00:45:24;;;;;;;;;;;;;;;;;;7365630;19;1291;-57
2022/10/19 00:47:53;;;;;;;;;;;;;;;;;;7366554;19;806;-53
2022/10/19 00:50:21;;;;;;;;;;;;;;;;;;7369087;19;1861;-50
2022/10/19 00:52:49;;;;;;;;;;;;;;;;;;7367021;19;1858;-55
2022/10/19 00:55:17;;;;;;;;;;;;;;;;;;7367487;19;2076;-51
2022/10/19 00:57:45;;;;;;;;;;;;;;;;;;7366851;19;866;-55
2022/10/19 01:00:13;;;;;;;;;;;;;;;;;;7366916;19;803;-51
2022/10/19 01:02:42;;;;;;;;;;;;;;;;;;7366710;19;806;-49
2022/10/19 01:05:10;;;;;;;;;;;;;;;;;;7366318;19;1349;-51
2022/10/19 01:07:38;;;;;;;;;;;;;;;;;;7366495;19;835;-51
2022/10/19 01:10:06;;;;;;;;;;;;;;;;;;7367658;19;1861;-52
2022/10/19 01:12:34;;;;;;;;;;;;;;;;;;7371217;19;1839;-49
2022/10/19 01:15:02;;;;;;;;;;;;;;;;;;7363719;19;1917;-52
2022/10/19 01:17:30;;;;;;;;;;;;;;;;;;7366774;19;802;-51
2022/10/19 01:19:58;;;;;;;;;;;;;;;;;;7366046;19;878;-51
2022/10/19 01:22:27;;;;;;;;;;;;;;;;;;7370126;19;1293;-50
2022/10/19 01:24:55;;;;;;;;;;;;;;;;;;7365965;19;1338;-50
2022/10/19 01:27:23;;;;;;;;;;;;;;;;;;7370939;19;1816;-50
2022/10/19 01:29:51;;;;;;;;;;;;;;;;;;7368253;19;1819;-50
2022/10/19 01:32:19;;;;;;;;;;;;;;;;;;7365889;19;794;-55
2022/10/19 01:34:47;;;;;;;;;;;;;;;;;;7363776;19;1841;-55
2022/10/19 01:37:15;;;;;;;;;;;;;;;;;;7369112;19;1046;-50
2022/10/19 01:39:43;;;;;;;;;;;;;;;;;;7367316;19;2059;-49
2022/10/19 01:42:11;;;;;;;;;;;;;;;;;;7368904;19;1861;-52
2022/10/19 01:44:40;;;;;;;;;;;;;;;;;;7365794;19;1283;-50
2022/10/19 01:47:08;;;;;;;;;;;;;;;;;;7366120;19;864;-52
2022/10/19 01:49:36;;;;;;;;;;;;;;;;;;7366263;19;747;-51
2022/10/19 01:52:04;;;;;;;;;;;;;;;;;;7366704;19;2018;-53
2022/10/19 01:54:32;;;;;;;;;;;;;;;;;;7366266;19;1834;-56
2022/10/19 01:57:00;;;;;;;;;;;;;;;;;;7369847;19;815;-56
2022/10/19 01:59:28;;;;;;;;;;;;;;;;;;7371875;19;874;-55
2022/10/19 02:01:56;;;;;;;;;;;;;;;;;;7372860;19;831;-54
2022/10/19 02:04:24;;;;;;;;;;;;;;;;;;7373432;19;1631;-56
2022/10/19 02:06:53;;;;;;;;;;;;;;;;;;7372133;19;1876;-56
2022/10/19 02:09:21;;;;;;;;;;;;;;;;;;7371084;19;814;-58
2022/10/19 02:11:49;;;;;;;;;;;;;;;;;;7372624;19;811;-57
2022/10/19 02:14:17;;;;;;;;;;;;;;;;;;7371075;19;1853;-55
2022/10/19 02:16:45;;;;;;;;;;;;;;;;;;7371351;19;1287;-54
2022/10/19 02:19:13;;;;;;;;;;;;;;;;;;7371387;19;834;-57
2022/10/19 02:21:41;;;;;;;;;;;;;;;;;;7372019;19;811;-55
2022/10/19 02:24:10;;;;;;;;;;;;;;;;;;7373546;19;1812;-57
2022/10/19 02:26:38;;;;;;;;;;;;;;;;;;7369438;19;1332;-53
2022/10/19 02:29:06;;;;;;;;;;;;;;;;;;7370586;19;850;-52
2022/10/19 02:31:34;;;;;;;;;;;;;;;;;;7371122;19;1241;-51
2022/10/19 02:34:02;;;;;;;;;;;;;;;;;;7370513;19;1845;-55
2022/10/19 02:36:30;;;;;;;;;;;;;;;;;;7368997;19;1283;-55
2022/10/19 02:38:58;;;;;;;;;;;;;;;;;;7370452;19;2024;-57
2022/10/19 02:41:26;;;;;;;;;;;;;;;;;;7371503;19;855;-49
2022/10/19 02:43:54;;;;;;;;;;;;;;;;;;7371526;19;814;-55
2022/10/19 02:46:23;;;;;;;;;;;;;;;;;;7368899;19;1368;-56
2022/10/19 02:48:51;;;;;;;;;;;;;;;;;;7370698;19;807;-53
2022/10/19 02:51:19;;;;;;;;;;;;;;;;;;7371330;19;877;-55
2022/10/19 02:53:47;;;;;;;;;;;;;;;;;;7372126;19;1838;-56
2022/10/19 02:56:15;;;;;;;;;;;;;;;;;;7371765;19;2021;-51
2022/10/19 02:58:43;;;;;;;;;;;;;;;;;;7373649;19;2016;-53
2022/10/19 03:01:11;;;;;;;;;;;;;;;;;;7370880;19;868;-50
2022/10/19 03:03:39;;;;;;;;;;;;;;;;;;7371185;19;854;-54
2022/10/19 03:06:08;;;;;;;;;;;;;;;;;;7368538;19;1258;-56
2022/10/19 03:08:36;;;;;;;;;;;;;;;;;;7368523;19;807;-52
2022/10/19 03:11:04;;;;;;;;;;;;;;;;;;7371409;19;1817;-56
2022/10/19 03:13:32;;;;;;;;;;;;;;;;;;7370169;19;1833;-53
2022/10/19 03:16:00;;;;;;;;;;;;;;;;;;7368432;19;1337;-56
2022/10/19 03:18:28;;;;;;;;;;;;;;;;;;7369633;19;832;-53
2022/10/19 03:20:56;;;;;;;;;;;;;;;;;;7370332;19;839;-51
2022/10/19 03:23:24;;;;;;;;;;;;;;;;;;7370350;19;870;-56
2022/10/19 03:25:53;;;;;;;;;;;;;;;;;;7368567;19;1345;-55
2022/10/19 03:28:21;;;;;;;;;;;;;;;;;;7373527;19;2011;-58
2022/10/19 03:30:49;;;;;;;;;;;;;;;;;;7370118;19;817;-57
2022/10/19 03:33:17;;;;;;;;;;;;;;;;;;7369547;19;994;-57
2022/10/19 03:35:45;;;;;;;;;;;;;;;;;;7367216;19;1854;-56
2022/10/19 03:38:13;;;;;;;;;;;;;;;;;;7368858;19;823;-54
2022/10/19 03:40:41;;;;;;;;;;;;;;;;;;7373805;19;1836;-52
2022/10/19 03:43:09;;;;;;;;;;;;;;;;;;7371285;19;2029;-53
2022/10/19 03:45:37;;;;;;;;;;;;;;;;;;7369784;19;1870;-52
2022/10/19 03:48:06;;;;;;;;;;;;;;;;;;7370991;19;1661;-54
2022/10/19 03:50:34;;;;;;;;;;;;;;;;;;7369600;19;861;-53
2022/10/19 03:53:02;;;;;;;;;;;;;;;;;;7369805;19;819;-51
2022/10/19 03:55:30;;;;;;;;;;;;;;;;;;7366009;19;1846;-52
2022/10/19 03:57:58;;;;;;;;;;;;;;;;;;7368463;19;815;-50
2022/10/19 04:00:26;;;;;;;;;;;;;;;;;;7372100;19;1784;-57
2022/10/19 04:02:54;;;;;;;;;;;;;;;;;;7368887;19;823;-53
2022/10/19 04:05:22;;;;;;;;;;;;;;;;;;7367834;19;1356;-55
2022/10/19 04:07:50;;;;;;;;;;;;;;;;;;7368297;19;815;-53
2022/10/19 04:10:19;;;;;;;;;;;;;;;;;;7368250;19;865;-52
2022/10/19 04:12:47;;;;;;;;;;;;;;;;;;7367940;19;837;-49
2022/10/19 04:15:15;;;;;;;;;;;;;;;;;;7367667;19;1850;-53
2022/10/19 04:17:43;;;;;;;;;;;;;;;;;;7368115;19;846;-54
2022/10/19 04:20:11;;;;;;;;;;;;;;;;;;7366466;19;837;-54
2022/10/19 04:22:39;;;;;;;;;;;;;;;;;;7368496;19;827;-53
2022/10/19 04:25:07;;;;;;;;;;;;;;;;;;7367360;19;1333;-55
2022/10/19 04:27:35;;;;;;;;;;;;;;;;;;7371633;19;2023;-58
2022/10/19 04:30:04;;;;;;;;;;;;;;;;;;7368590;19;838;-53
2022/10/19 04:32:32;;;;;;;;;;;;;;;;;;7372159;19;1830;-55
2022/10/19 04:35:00;;;;;;;;;;;;;;;;;;7366235;19;1863;-55
2022/10/19 04:37:28;;;;;;;;;;;;;;;;;;7368283;19;799;-57
2022/10/19 04:39:56;;;;;;;;;;;;;;;;;;7367438;19;833;-55
2022/10/19 04:42:24;;;;;;;;;;;;;;;;;;7366426;19;871;-49
2022/10/19 04:44:52;;;;;;;;;;;;;;;;;;7367005;19;1254;-54
2022/10/19 04:47:20;;;;;;;;;;;;;;;;;;7368161;19;1758;-54
2022/10/19 04:49:48;;;;;;;;;;;;;;;;;;7370368;19;2065;-55
2022/10/19 04:52:17;;;;;;;;;;;;;;;;;;7367421;19;866;-52
2022/10/19 04:54:45;;;;;;;;;;;;;;;;;;7366446;19;1842;-56
2022/10/19 04:57:13;;;;;;;;;;;;;;;;;;7367971;19;877;-56
2022/10/19 04:59:41;;;;;;;;;;;;;;;;;;7366973;19;732;-58
2022/10/19 05:02:09;;;;;;;;;;;;;;;;;;7367642;19;848;-54
2022/10/19 05:04:37;;;;;;;;;;;;;;;;;;7370775;19;1870;-55
2022/10/19 05:07:05;;;;;;;;;;;;;;;;;;7366936;19;832;-53
2022/10/19 05:09:33;;;;;;;;;;;;;;;;;;7366593;19;857;-55
2022/10/19 05:12:02;;;;;;;;;;;;;;;;;;7367089;19;826;-56
2022/10/19 05:14:30;;;;;;;;;;;;;;;;;;7366204;19;1855;-50
2022/10/19 05:16:58;;;;;;;;;;;;;;;;;;7367804;19;724;-53
2022/10/19 05:19:27;;;;;;;;;;;;;;;;;;7368480;19;1898;-57
2022/10/19 05:21:55;;;;;;;;;;;;;;;;;;7368028;19;923;-55
2022/10/19 05:24:23;;;;;;;;;;;;;;;;;;7367001;19;787;-54
2022/10/19 05:26:51;;;;;;;;;;;;;;;;;;7370135;19;1690;-57
2022/10/19 05:29:19;;;;;;;;;;;;;;;;;;7366950;19;802;-60
2022/10/19 05:31:48;;;;;;;;;;;;;;;;;;7366688;19;772;-58
2022/10/19 05:34:16;;;;;;;;;;;;;;;;;;7365820;19;1875;-56
2022/10/19 05:36:44;;;;;;;;;;;;;;;;;;7366446;19;1995;-54
2022/10/19 05:39:12;;;;;;;;;;;;;;;;;;7366210;19;881;-55
2022/10/19 05:41:41;;;;;;;;;;;;;;;;;;7367539;19;1848;-53
2022/10/19 05:44:09;;;;;;;;;;;;;;;;;;7366332;19;861;-54
2022/10/19 05:46:37;;;;;;;;;;;;;;;;;;7367852;19;1261;-56
2022/10/19 05:49:05;;;;;;;;;;;;;;;;;;7372544;19;1678;-55
2022/10/19 05:51:34;;;;;;;;;;;;;;;;;;7375525;19;1790;-56
2022/10/19 05:54:02;;;;;;;;;;;;;;;;;;7376753;19;1805;-55
2022/10/19 05:56:30;;;;;;;;;;;;;;;;;;7369716;19;1855;-55
2022/10/19 05:58:58;;;;;;;;;;;;;;;;;;7371957;19;901;-55
2022/10/19 06:01:27;;;;;;;;;;;;;;;;;;7367712;19;862;-55
2022/10/19 06:03:55;;;;;;;;;;;;;;;;;;7366674;19;804;-54
2022/10/19 06:06:23;;;;;;;;;;;;;;;;;;7363799;19;1862;-54
2022/10/19 06:08:51;;;;;;;;;;;;;;;;;;7365408;19;818;-56
2022/10/19 06:11:19;;;;;;;;;;;;;;;;;;7365766;19;846;-58
2022/10/19 06:13:49;;;;;;;;;;;;;;;;;;7367057;19;2042;-57
2022/10/19 06:16:17;;;;;;;;;;;;;;;;;;7363244;19;1867;-59
2022/10/19 06:18:45;;;;;;;;;;;;;;;;;;7364054;19;851;-59
2022/10/19 06:21:13;;;;;;;;;;;;;;;;;;7364975;19;822;-55
2022/10/19 06:23:41;;;;;;;;;;;;;;;;;;7368364;19;1832;-58
2022/10/19 06:26:09;;;;;;;;;;;;;;;;;;7363785;19;1283;-56
2022/10/19 06:28:38;;;;;;;;;;;;;;;;;;7365627;19;819;-56
2022/10/19 06:31:06;;;;;;;;;;;;;;;;;;7368217;19;1906;-57
2022/10/19 06:33:34;;;;;;;;;;;;;;;;;;7365440;19;771;-55
2022/10/19 06:36:02;;;;;;;;;;;;;;;;;;7362941;19;1846;-51
2022/10/19 06:38:30;;;;;;;;;;;;;;;;;;7365165;19;837;-54
2022/10/19 06:40:58;;;;;;;;;;;;;;;;;;7363881;19;873;-54
2022/10/19 06:43:26;;;;;;;;;;;;;;;;;;7371456;19;1882;-57
2022/10/19 06:45:54;;;;;;;;;;;;;;;;;;7369805;19;1277;-58
2022/10/19 06:48:23;;;;;;;;;;;;;;;;;;7370573;19;806;-55
2022/10/19 06:50:51;;;;;;;;;;;;;;;;;;7371133;19;858;-57
2022/10/19 06:53:19;;;;;;;;;;;;;;;;;;7371072;19;794;-58
2022/10/19 06:55:47;;;;;;;;;;;;;;;;;;7369821;19;1853;-58
2022/10/19 06:58:15;;;;;;;;;;;;;;;;;;7370124;19;799;-54
2022/10/19 07:00:43;;;;;;;;;;;;;;;;;;7374573;19;1872;-60
2022/10/19 07:03:11;;;;;;;;;;;;;;;;;;7371211;19;865;-59
2022/10/19 07:05:40;;;;;;;;;;;;;;;;;;7368925;19;1278;-60
2022/10/19 07:08:08;;;;;;;;;;;;;;;;;;7370063;19;866;-57
2022/10/19 07:10:36;;;;;;;;;;;;;;;;;;7370351;19;780;-59
2022/10/19 07:13:04;;;;;;;;;;;;;;;;;;7370330;19;912;-59
2022/10/19 07:15:32;;;;;;;;;;;;;;;;;;7370660;19;1846;-58
2022/10/19 07:18:00;;;;;;;;;;;;;;;;;;7372710;19;2031;-58
2022/10/19 07:20:28;;;;;;;;;;;;;;;;;;7369752;19;901;-58
2022/10/19 07:22:57;;;;;;;;;;;;;;;;;;7369770;19;842;-58
2022/10/19 07:25:25;;;;;;;;;;;;;;;;;;7369317;19;1303;-56
2022/10/19 07:27:53;;;;;;;;;;;;;;;;;;7369699;19;853;-57
2022/10/19 07:30:21;;;;;;;;;;;;;;;;;;7369873;19;1825;-60
2022/10/19 07:32:50;;;;;;;;;;;;;;;;;;7371469;19;1841;-58
2022/10/19 07:35:18;;;;;;;;;;;;;;;;;;7367985;19;1857;-59
2022/10/19 07:37:46;;;;;;;;;;;;;;;;;;7368777;19;850;-58
2022/10/19 07:40:14;;;;;;;;;;;;;;;;;;7369237;19;803;-60
2022/10/19 07:42:42;;;;;;;;;;;;;;;;;;7369139;19;850;-59
2022/10/19 07:45:10;;;;;;;;;;;;;;;;;;7368271;19;1286;-58
2022/10/19 07:47:38;;;;;;;;;;;;;;;;;;7372334;19;1847;-52
2022/10/19 07:50:06;;;;;;;;;;;;;;;;;;7368326;19;1653;-61
2022/10/19 07:52:35;;;;;;;;;;;;;;;;;;7372926;19;1833;-60
2022/10/19 07:55:03;;;;;;;;;;;;;;;;;;7366060;19;1819;-61
2022/10/19 07:57:31;;;;;;;;;;;;;;;;;;7369114;19;790;-60
2022/10/19 07:59:59;;;;;;;;;;;;;;;;;;7367811;19;824;-60
2022/10/19 08:02:27;;;;;;;;;;;;;;;;;;7370563;19;2016;-61
2022/10/19 08:04:55;;;;;;;;;;;;;;;;;;7368223;19;1366;-60
2022/10/19 08:07:23;;;;;;;;;;;;;;;;;;7368991;19;829;-60
2022/10/19 08:09:51;;;;;;;;;;;;;;;;;;7368233;19;803;-58
2022/10/19 08:12:20;;;;;;;;;;;;;;;;;;7368207;19;827;-59
2022/10/19 08:14:49;;;;;;;;;;;;;;;;;;7367976;19;1192;-59
2022/10/19 08:17:18;;;;;;;;;;;;;;;;;;7366201;19;1876;-61
2022/10/19 08:19:46;;;;;;;;;;;;;;;;;;7371986;19;1782;-60
2022/10/19 08:22:14;;;;;;;;;;;;;;;;;;7367859;19;873;-59
2022/10/19 08:24:42;;;;;;;;;;;;;;;;;;7368344;19;1243;-60
2022/10/19 08:27:10;;;;;;;;;;;;;;;;;;7367848;19;811;-60
2022/10/19 08:29:38;;;;;;;;;;;;;;;;;;7367500;19;823;-59
2022/10/19 08:32:06;;;;;;;;;;;;;;;;;;7367964;19;886;-60
2022/10/19 08:34:34;;;;;;;;;;;;;;;;;;7369922;19;1817;-61
2022/10/19 08:37:02;;;;;;;;;;;;;;;;;;7365116;19;1856;-60
2022/10/19 08:39:31;;;;;;;;;;;;;;;;;;7366621;19;811;-58
2022/10/19 08:41:59;;;;;;;;;;;;;;;;;;7367009;19;916;-58
2022/10/19 08:44:27;;;;;;;;;;;;;;;;;;7367088;19;803;-55
2022/10/19 08:46:55;;;;;;;;;;;;;;;;;;7366022;19;778;-59
2022/10/19 08:49:23;;;;;;;;;;;;;;;;;;7366977;19;822;-57
2022/10/19 08:51:51;;;;;;;;;;;;;;;;;;7367638;19;854;-59
2022/10/19 08:54:19;;;;;;;;;;;;;;;;;;7367985;19;816;-59
2022/10/19 08:56:48;;;;;;;;;;;;;;;;;;7364499;19;1859;-60
2022/10/19 08:59:16;;;;;;;;;;;;;;;;;;7367199;19;885;-60
2022/10/19 09:01:45;;;;;;;;;;;;;;;;;;7367184;19;815;-58
2022/10/19 09:04:13;;;;;;;;;;;;;;;;;;7367377;19;749;-59
2022/10/19 09:06:43;;;;;;;;;;;;;;;;;;7363499;19;1324;-55
2022/10/19 09:09:11;;;;;;;;;;;;;;;;;;7366920;19;863;-57
2022/10/19 09:11:39;;;;;;;;;;;;;;;;;;7367495;19;811;-59
2022/10/19 09:14:07;;;;;;;;;;;;;;;;;;7367360;19;874;-60
2022/10/19 09:16:36;;;;;;;;;;;;;;;;;;7363666;19;1865;-60
2022/10/19 09:19:04;;;;;;;;;;;;;;;;;;7365763;19;815;-60
2022/10/19 09:21:32;;;;;;;;;;;;;;;;;;7366754;19;791;-61
2022/10/19 09:24:00;;;;;;;;;;;;;;;;;;7366494;19;827;-60
2022/10/19 09:26:28;;;;;;;;;;;;;;;;;;7364941;19;1306;-59
2022/10/19 09:28:57;;;;;;;;;;;;;;;;;;7365948;19;825;-59
2022/10/19 09:31:25;;;;;;;;;;;;;;;;;;7366860;19;838;-53
2022/10/19 09:33:54;;;;;;;;;;;;;;;;;;7366174;19;790;-59
2022/10/19 09:36:22;;;;;;;;;;;;;;;;;;7360921;19;1854;-59
2022/10/19 09:38:50;;;;;;;;;;;;;;;;;;7367357;19;1498;-57
2022/10/19 09:41:18;;;;;;;;;;;;;;;;;;7366424;19;1821;-59
2022/10/19 09:43:49;;;;;;;;;;;;;;;;;;7365586;19;763;-58
2022/10/19 09:46:17;;;;;;;;;;;;;;;;;;7363720;19;1857;-56
2022/10/19 09:48:45;;;;;;;;;;;;;;;;;;7367342;19;1826;-60
2022/10/19 09:51:14;;;;;;;;;;;;;;;;;;7366981;19;834;-59
2022/10/19 09:53:42;;;;;;;;;;;;;;;;;;7365750;19;847;-60
2022/10/19 09:56:10;;;;;;;;;;;;;;;;;;7364193;19;1861;-61
2022/10/19 09:58:38;;;;;;;;;;;;;;;;;;7365087;19;818;-60
2022/10/19 10:01:06;;;;;;;;;;;;;;;;;;7367010;19;1839;-58
2022/10/19 10:03:34;;;;;;;;;;;;;;;;;;7365998;19;775;-61
2022/10/19 10:06:03;;;;;;;;;;;;;;;;;;7363503;19;1807;-58
2022/10/19 10:08:31;;;;;;;;;;;;;;;;;;7364713;19;2034;-60
2022/10/19 10:10:59;;;;;;;;;;;;;;;;;;7364932;19;819;-59
2022/10/19 10:13:27;;;;;;;;;;;;;;;;;;7364756;19;823;-57
2022/10/19 10:15:55;;;;;;;;;;;;;;;;;;7364504;19;1915;-59
2022/10/19 10:18:23;;;;;;;;;;;;;;;;;;7369510;19;862;-54
2022/10/19 10:20:51;;;;;;;;;;;;;;;;;;7371280;19;870;-58
2022/10/19 10:23:20;;;;;;;;;;;;;;;;;;7371481;19;1483;-59
2022/10/19 10:25:48;;;;;;;;;;;;;;;;;;7372874;19;1846;-56
2022/10/19 10:28:16;;;;;;;;;;;;;;;;;;7370069;19;871;-61
2022/10/19 10:30:44;;;;;;;;;;;;;;;;;;7372206;19;1816;-62
2022/10/19 10:33:12;;;;;;;;;;;;;;;;;;7370537;19;824;-60
2022/10/19 10:35:40;;;;;;;;;;;;;;;;;;7369526;19;1848;-60
2022/10/19 10:38:08;;;;;;;;;;;;;;;;;;7373054;19;2043;-60
2022/10/19 10:40:36;;;;;;;;;;;;;;;;;;7370325;19;832;-60
2022/10/19 10:43:05;;;;;;;;;;;;;;;;;;7371110;19;799;-54
2022/10/19 10:45:33;;;;;;;;;;;;;;;;;;7369118;19;1341;-55
2022/10/19 10:48:01;;;;;;;;;;;;;;;;;;7369251;19;818;-57
2022/10/19 10:50:29;;;;;;;;;;;;;;;;;;7371119;19;869;-52
2022/10/19 10:52:57;;;;;;;;;;;;;;;;;;7374785;19;1824;-54
2022/10/19 10:55:25;;;;;;;;;;;;;;;;;;7369514;19;1270;-53
2022/10/19 10:57:53;;;;;;;;;;;;;;;;;;7368370;19;1856;-57
2022/10/19 11:00:22;;;;;;;;;;;;;;;;;;7370908;19;873;-57
2022/10/19 11:02:51;;;;;;;;;;;;;;;;;;7371277;19;853;-56
2022/10/19 11:05:19;;;;;;;;;;;;;;;;;;7370190;19;1310;-51
2022/10/19 11:07:47;;;;;;;;;;;;;;;;;;7374193;19;1817;-55
2022/10/19 11:10:15;;;;;;;;;;;;;;;;;;7371880;19;782;-51
2022/10/19 11:12:43;;;;;;;;;;;;;;;;;;7371180;19;2003;-52
2022/10/19 11:15:11;;;;;;;;;;;;;;;;;;7371452;19;1804;-59
2022/10/19 11:17:39;;;;;;;;;;;;;;;;;;7367769;19;1852;-51
2022/10/19 11:20:07;;;;;;;;;;;;;;;;;;7369979;19;873;-54
2022/10/19 11:22:36;;;;;;;;;;;;;;;;;;7370348;19;800;-53
2022/10/19 11:25:04;;;;;;;;;;;;;;;;;;7369164;19;1247;-58
2022/10/19 11:27:32;;;;;;;;;;;;;;;;;;7369698;19;822;-55
2022/10/19 11:30:00;;;;;;;;;;;;;;;;;;7373641;19;1819;-55
2022/10/19 11:32:28;;;;;;;;;;;;;;;;;;7374396;19;1886;-54
2022/10/19 11:34:56;;;;;;;;;;;;;;;;;;7369003;19;1283;-54
2022/10/19 11:37:24;;;;;;;;;;;;;;;;;;7367923;19;1842;-54
2022/10/19 11:39:52;;;;;;;;;;;;;;;;;;7369277;19;789;-53
2022/10/19 11:42:20;;;;;;;;;;;;;;;;;;7372929;19;2054;-55
2022/10/19 11:44:50;;;;;;;;;;;;;;;;;;7369871;19;1290;-62
2022/10/19 11:47:18;;;;;;;;;;;;;;;;;;7366903;19;838;-59
2022/10/19 11:49:46;;;;;;;;;;;;;;;;;;7363727;19;771;-61
2022/10/19 11:52:14;;;;;;;;;;;;;;;;;;7369256;19;817;-59
2022/10/19 11:54:42;;;;;;;;;;;;;;;;;;7368526;19;1361;-62
2022/10/19 11:57:10;;;;;;;;;;;;;;;;;;7367564;19;1849;-62
2022/10/19 11:59:39;;;;;;;;;;;;;;;;;;7367529;19;843;-61
2022/10/19 12:02:07;;;;;;;;;;;;;;;;;;7368849;19;823;-60
2022/10/19 12:04:35;;;;;;;;;;;;;;;;;;7368887;19;1326;-60
2022/10/19 12:07:03;;;;;;;;;;;;;;;;;;7368190;19;760;-61
2022/10/19 12:09:31;;;;;;;;;;;;;;;;;;7368764;19;807;-61
2022/10/19 12:11:59;;;;;;;;;;;;;;;;;;7368449;19;796;-61
2022/10/19 12:14:27;;;;;;;;;;;;;;;;;;7368508;19;791;-60
2022/10/19 12:16:56;;;;;;;;;;;;;;;;;;7366725;19;1852;-62
2022/10/19 12:19:24;;;;;;;;;;;;;;;;;;7368167;19;810;-61
2022/10/19 12:21:52;;;;;;;;;;;;;;;;;;7368290;19;871;-62
2022/10/19 12:24:20;;;;;;;;;;;;;;;;;;7367940;19;877;-61
2022/10/19 12:26:48;;;;;;;;;;;;;;;;;;7365060;19;1247;-61
2022/10/19 12:29:16;;;;;;;;;;;;;;;;;;7367648;19;818;-62
2022/10/19 12:31:44;;;;;;;;;;;;;;;;;;7368293;19;808;-64
2022/10/19 12:34:13;;;;;;;;;;;;;;;;;;7368618;19;854;-61
2022/10/19 12:36:41;;;;;;;;;;;;;;;;;;7365103;19;1847;-61
2022/10/19 12:39:09;;;;;;;;;;;;;;;;;;7366054;19;779;-58
2022/10/19 12:41:37;;;;;;;;;;;;;;;;;;7366628;19;807;-58
2022/10/19 12:44:05;;;;;;;;;;;;;;;;;;7367149;19;847;-60
2022/10/19 12:46:33;;;;;;;;;;;;;;;;;;7364968;19;1298;-57
2022/10/19 12:49:01;;;;;;;;;;;;;;;;;;7366992;19;870;-61
2022/10/19 12:51:29;;;;;;;;;;;;;;;;;;7367011;19;784;-58
2022/10/19 12:53:57;;;;;;;;;;;;;;;;;;7367670;19;869;-61
2022/10/19 12:56:26;;;;;;;;;;;;;;;;;;7364272;19;1845;-58
2022/10/19 12:58:54;;;;;;;;;;;;;;;;;;7366581;19;806;-61
2022/10/19 13:01:22;;;;;;;;;;;;;;;;;;7367446;19;821;-60
2022/10/19 13:03:50;;;;;;;;;;;;;;;;;;7367160;19;865;-60
2022/10/19 13:06:18;;;;;;;;;;;;;;;;;;7364554;19;1313;-62
2022/10/19 13:08:47;;;;;;;;;;;;;;;;;;7366763;19;846;-62
2022/10/19 13:11:16;;;;;;;;;;;;;;;;;;7371030;19;791;-60
2022/10/19 13:13:44;;;;;;;;;;;;;;;;;;7370572;19;858;-57
2022/10/19 13:16:12;;;;;;;;;;;;;;;;;;7368634;19;1333;-57
2022/10/19 13:18:40;;;;;;;;;;;;;;;;;;7366522;19;1837;-59
2022/10/19 13:21:08;;;;;;;;;;;;;;;;;;7371584;19;862;-58
2022/10/19 13:23:36;;;;;;;;;;;;;;;;;;7371354;19;869;-61
2022/10/19 13:26:04;;;;;;;;;;;;;;;;;;7364984;19;1291;-60
2022/10/19 13:28:32;;;;;;;;;;;;;;;;;;7365697;19;801;-60
2022/10/19 13:31:01;;;;;;;;;;;;;;;;;;7366402;19;839;-62
2022/10/19 13:33:30;;;;;;;;;;;;;;;;;;7366324;19;795;-62
2022/10/19 13:35:58;;;;;;;;;;;;;;;;;;7364404;19;1405;-61
2022/10/19 13:38:27;;;;;;;;;;;;;;;;;;7362535;19;1842;-61
2022/10/19 13:40:55;;;;;;;;;;;;;;;;;;7366071;19;894;-61
2022/10/19 13:43:23;;;;;;;;;;;;;;;;;;7366081;19;811;-63
2022/10/19 13:45:51;;;;;;;;;;;;;;;;;;7364274;19;1334;-62
2022/10/19 13:48:19;;;;;;;;;;;;;;;;;;7364712;19;811;-61
2022/10/19 13:50:47;;;;;;;;;;;;;;;;;;7366701;19;869;-63
2022/10/19 13:53:15;;;;;;;;;;;;;;;;;;7372582;19;2129;-58
2022/10/19 13:55:44;;;;;;;;;;;;;;;;;;7371066;19;1707;-61
2022/10/19 13:58:12;;;;;;;;;;;;;;;;;;7369437;19;1845;-61
2022/10/19 14:00:41;;;;;;;;;;;;;;;;;;7373295;19;1781;-62
2022/10/19 14:03:09;;;;;;;;;;;;;;;;;;7371790;19;827;-62
2022/10/19 14:05:37;;;;;;;;;;;;;;;;;;7369775;19;1333;-62
2022/10/19 14:08:05;;;;;;;;;;;;;;;;;;7370997;19;784;-62
2022/10/19 14:10:33;;;;;;;;;;;;;;;;;;7371968;19;822;-61
2022/10/19 14:13:01;;;;;;;;;;;;;;;;;;7371999;19;822;-66
2022/10/19 14:15:29;;;;;;;;;;;;;;;;;;7370084;19;1334;-60
2022/10/19 14:17:58;;;;;;;;;;;;;;;;;;7369639;19;1830;-63
2022/10/19 14:20:26;;;;;;;;;;;;;;;;;;7372256;19;1819;-59
2022/10/19 14:22:54;;;;;;;;;;;;;;;;;;7371074;19;871;-60
2022/10/19 14:25:22;;;;;;;;;;;;;;;;;;7369868;19;1299;-60
2022/10/19 14:27:50;;;;;;;;;;;;;;;;;;7370907;19;806;-58
2022/10/19 14:30:18;;;;;;;;;;;;;;;;;;7370903;19;862;-61
2022/10/19 14:32:46;;;;;;;;;;;;;;;;;;7371926;19;874;-61
2022/10/19 14:35:14;;;;;;;;;;;;;;;;;;7370195;19;1298;-62
2022/10/19 14:37:42;;;;;;;;;;;;;;;;;;7369486;19;1855;-56
2022/10/19 14:40:11;;;;;;;;;;;;;;;;;;7371231;19;803;-63
2022/10/19 14:42:39;;;;;;;;;;;;;;;;;;7370797;19;825;-62
2022/10/19 14:45:07;;;;;;;;;;;;;;;;;;7370659;19;1365;-62
2022/10/19 14:47:35;;;;;;;;;;;;;;;;;;7370679;19;858;-57
2022/10/19 14:50:03;;;;;;;;;;;;;;;;;;7374851;19;2052;-60
2022/10/19 14:52:31;;;;;;;;;;;;;;;;;;7371209;19;813;-61
2022/10/19 14:54:59;;;;;;;;;;;;;;;;;;7370576;19;1286;-61
2022/10/19 14:57:28;;;;;;;;;;;;;;;;;;7371254;19;2119;-62
2022/10/19 14:59:56;;;;;;;;;;;;;;;;;;7370662;19;1859;-60
2022/10/19 15:02:24;;;;;;;;;;;;;;;;;;7368928;19;861;-60
2022/10/19 15:04:52;;;;;;;;;;;;;;;;;;7369663;19;2050;-59
2022/10/19 15:07:20;;;;;;;;;;;;;;;;;;7371126;19;1606;-61
2022/10/19 15:09:48;;;;;;;;;;;;;;;;;;7368548;19;743;-61
2022/10/19 15:12:16;;;;;;;;;;;;;;;;;;7372250;19;1557;-62
2022/10/19 15:14:44;;;;;;;;;;;;;;;;;;7368748;19;1345;-60
2022/10/19 15:17:13;;;;;;;;;;;;;;;;;;7365782;19;1877;-61
2022/10/19 15:19:41;;;;;;;;;;;;;;;;;;7369393;19;1810;-60
2022/10/19 15:22:09;;;;;;;;;;;;;;;;;;7371347;19;1887;-61
2022/10/19 15:24:37;;;;;;;;;;;;;;;;;;7369131;19;1265;-63
2022/10/19 15:27:05;;;;;;;;;;;;;;;;;;7369827;19;814;-61
2022/10/19 15:29:33;;;;;;;;;;;;;;;;;;7368894;19;806;-62
2022/10/19 15:32:01;;;;;;;;;;;;;;;;;;7369415;19;820;-61
2022/10/19 15:34:29;;;;;;;;;;;;;;;;;;7369416;19;1700;-57
2022/10/19 15:36:58;;;;;;;;;;;;;;;;;;7371884;19;2031;-60
2022/10/19 15:39:26;;;;;;;;;;;;;;;;;;7366096;19;1845;-60
2022/10/19 15:41:54;;;;;;;;;;;;;;;;;;7367419;19;905;-60
2022/10/19 15:44:22;;;;;;;;;;;;;;;;;;7368264;19;863;-58
2022/10/19 15:46:50;;;;;;;;;;;;;;;;;;7366263;19;1961;-59
2022/10/19 15:49:18;;;;;;;;;;;;;;;;;;7368492;19;794;-62
2022/10/19 15:51:46;;;;;;;;;;;;;;;;;;7371519;19;1797;-59
2022/10/19 15:54:16;;;;;;;;;;;;;;;;;;7371187;19;1678;-60
2022/10/19 15:56:44;;;;;;;;;;;;;;;;;;7366833;19;1834;-60
2022/10/19 15:59:12;;;;;;;;;;;;;;;;;;7365586;19;1846;-61
2022/10/19 16:01:40;;;;;;;;;;;;;;;;;;7370311;19;937;-60
2022/10/19 16:04:08;;;;;;;;;;;;;;;;;;7369256;19;1810;-61
2022/10/19 16:06:37;;;;;;;;;;;;;;;;;;7365778;19;1330;-58
2022/10/19 16:09:05;;;;;;;;;;;;;;;;;;7371250;19;1793;-61
2022/10/19 16:11:33;;;;;;;;;;;;;;;;;;7370235;19;1841;-59
2022/10/19 16:14:01;;;;;;;;;;;;;;;;;;7371988;19;1788;-61
2022/10/19 16:16:29;;;;;;;;;;;;;;;;;;7364988;19;1263;-61
2022/10/19 16:18:57;;;;;;;;;;;;;;;;;;7369603;19;1841;-62
2022/10/19 16:21:25;;;;;;;;;;;;;;;;;;7368399;19;794;-59
2022/10/19 16:23:53;;;;;;;;;;;;;;;;;;7367901;19;822;-61
2022/10/19 16:26:22;;;;;;;;;;;;;;;;;;7365979;19;1344;-62
2022/10/19 16:28:50;;;;;;;;;;;;;;;;;;7367342;19;854;-62
2022/10/19 16:31:18;;;;;;;;;;;;;;;;;;7372203;19;1969;-58
2022/10/19 16:33:46;;;;;;;;;;;;;;;;;;7368681;19;865;-61
2022/10/19 16:36:17;;;;;;;;;;;;;;;;;;7365653;19;1286;-63
2022/10/19 16:38:45;;;;;;;;;;;;;;;;;;7365397;19;1858;-61
2022/10/19 16:41:13;;;;;;;;;;;;;;;;;;7367018;19;791;-61
2022/10/19 16:43:41;;;;;;;;;;;;;;;;;;7368309;19;1082;-60
2022/10/19 16:46:09;;;;;;;;;;;;;;;;;;7365426;19;1278;-61
2022/10/19 16:48:37;;;;;;;;;;;;;;;;;;7367533;19;806;-61
2022/10/19 16:51:05;;;;;;;;;;;;;;;;;;7367696;19;795;-61
2022/10/19 16:53:34;;;;;;;;;;;;;;;;;;7368086;19;960;-62
2022/10/19 16:56:02;;;;;;;;;;;;;;;;;;7365772;19;1254;-58
2022/10/19 16:58:30;;;;;;;;;;;;;;;;;;7365693;19;1859;-57
2022/10/19 17:01:00;;;;;;;;;;;;;;;;;;7367280;19;851;-59
2022/10/19 17:03:28;;;;;;;;;;;;;;;;;;7367203;19;934;-54
2022/10/19 17:05:56;;;;;;;;;;;;;;;;;;7365650;19;1818;-60
2022/10/19 17:08:24;;;;;;;;;;;;;;;;;;7366847;19;804;-56
2022/10/19 17:10:52;;;;;;;;;;;;;;;;;;7367030;19;830;-57
2022/10/19 17:13:20;;;;;;;;;;;;;;;;;;7366756;19;857;-57
2022/10/19 17:15:48;;;;;;;;;;;;;;;;;;7365389;19;1251;-57
2022/10/19 17:18:17;;;;;;;;;;;;;;;;;;7366038;19;1837;-61